sensor_id;sensor_type;location;lat;lon;timestamp;pressure;altitude;pressure_sealevel;temperature;humidity
15817;BME280;8009;50.070;8.232;2023-04-21T00:02:20;99717.00;;;9.07;75.98
15817;BME280;8009;50.070;8.232;2023-04-21T00:04:48;99723.31;;;9.19;77.00
15817;BME280;8009;50.070;8.232;2023-04-21T00:07:16;99722.69;;;8.78;78.27
15817;BME280;8009;50.070;8.232;2023-04-21T00:09:47;99725.19;;;8.69;77.92
15817;BME280;8009;50.070;8.232;2023-04-21T00:12:15;99721.53;;;9.07;77.40
15817;BME280;8009;50.070;8.232;2023-04-21T00:14:45;99720.81;;;9.05;76.58
15817;BME280;8009;50.070;8.232;2023-04-21T00:20:25;99716.38;;;8.67;77.51
15817;BME280;8009;50.070;8.232;2023-04-21T00:22:53;99710.22;;;8.65;79.00
15817;BME280;8009;50.070;8.232;2023-04-21T00:25:24;99716.94;;;8.59;79.58
15817;BME280;8009;50.070;8.232;2023-04-21T00:27:54;99712.09;;;8.39;79.08
15817;BME280;8009;50.070;8.232;2023-04-21T00:33:38;99711.00;;;8.67;78.66
15817;BME280;8009;50.070;8.232;2023-04-21T00:36:07;99714.84;;;8.75;78.67
15817;BME280;8009;50.070;8.232;2023-04-21T00:38:35;99708.59;;;8.75;78.23
15817;BME280;8009;50.070;8.232;2023-04-21T00:41:06;99712.53;;;8.33;80.33
15817;BME280;8009;50.070;8.232;2023-04-21T00:43:34;99699.94;;;8.33;79.68
15817;BME280;8009;50.070;8.232;2023-04-21T00:46:03;99701.53;;;8.36;80.15
15817;BME280;8009;50.070;8.232;2023-04-21T00:48:31;99700.91;;;8.32;80.85
15817;BME280;8009;50.070;8.232;2023-04-21T00:51:17;99698.41;;;8.54;79.41
15817;BME280;8009;50.070;8.232;2023-04-21T00:53:46;99704.34;;;8.60;78.56
15817;BME280;8009;50.070;8.232;2023-04-21T00:59:43;99707.16;;;8.45;79.43
15817;BME280;8009;50.070;8.232;2023-04-21T01:02:13;99702.94;;;8.54;79.38
15817;BME280;8009;50.070;8.232;2023-04-21T01:04:41;99697.88;;;8.49;79.46
15817;BME280;8009;50.070;8.232;2023-04-21T01:07:10;99701.19;;;8.27;80.11
15817;BME280;8009;50.070;8.232;2023-04-21T01:09:38;99699.94;;;8.07;79.99
15817;BME280;8009;50.070;8.232;2023-04-21T01:12:20;99699.63;;;8.38;79.60
15817;BME280;8009;50.070;8.232;2023-04-21T01:18:22;99699.91;;;8.20;80.64
15817;BME280;8009;50.070;8.232;2023-04-21T01:20:51;99692.28;;;7.76;81.28
15817;BME280;8009;50.070;8.232;2023-04-21T01:23:41;99695.06;;;8.13;80.37
15817;BME280;8009;50.070;8.232;2023-04-21T01:26:09;99697.47;;;8.17;80.36
15817;BME280;8009;50.070;8.232;2023-04-21T01:28:38;99698.91;;;7.70;81.81
15817;BME280;8009;50.070;8.232;2023-04-21T01:31:22;99692.22;;;7.38;82.72
15817;BME280;8009;50.070;8.232;2023-04-21T01:40:15;99702.94;;;7.38;83.45
15817;BME280;8009;50.070;8.232;2023-04-21T01:42:44;99711.81;;;7.65;80.90
15817;BME280;8009;50.070;8.232;2023-04-21T01:48:23;99706.47;;;7.25;83.28
15817;BME280;8009;50.070;8.232;2023-04-21T01:50:53;99704.75;;;7.64;82.91
15817;BME280;8009;50.070;8.232;2023-04-21T01:53:21;99699.44;;;7.50;81.63
15817;BME280;8009;50.070;8.232;2023-04-21T01:55:53;99711.63;;;7.01;84.32
15817;BME280;8009;50.070;8.232;2023-04-21T02:01:59;99721.03;;;7.48;82.12
15817;BME280;8009;50.070;8.232;2023-04-21T02:04:28;99721.63;;;6.85;85.66
15817;BME280;8009;50.070;8.232;2023-04-21T02:06:56;99714.88;;;7.06;83.83
15817;BME280;8009;50.070;8.232;2023-04-21T02:09:34;99707.69;;;7.07;84.38
15817;BME280;8009;50.070;8.232;2023-04-21T02:12:06;99715.03;;;7.18;84.44
15817;BME280;8009;50.070;8.232;2023-04-21T02:17:39;99699.63;;;7.34;82.80
15817;BME280;8009;50.070;8.232;2023-04-21T02:20:10;99708.59;;;6.79;85.03
15817;BME280;8009;50.070;8.232;2023-04-21T02:22:45;99704.28;;;6.91;84.37
15817;BME280;8009;50.070;8.232;2023-04-21T02:25:14;99704.94;;;7.21;82.72
15817;BME280;8009;50.070;8.232;2023-04-21T02:31:04;99708.91;;;7.28;81.80
15817;BME280;8009;50.070;8.232;2023-04-21T02:33:32;99709.53;;;7.46;81.84
15817;BME280;8009;50.070;8.232;2023-04-21T02:45:26;99715.09;;;7.43;82.52
15817;BME280;8009;50.070;8.232;2023-04-21T02:51:13;99706.69;;;7.88;80.47
15817;BME280;8009;50.070;8.232;2023-04-21T02:53:41;99708.88;;;7.43;82.22
15817;BME280;8009;50.070;8.232;2023-04-21T02:56:10;99718.72;;;7.02;83.13
15817;BME280;8009;50.070;8.232;2023-04-21T02:58:38;99709.19;;;7.38;82.45
15817;BME280;8009;50.070;8.232;2023-04-21T03:01:06;99719.06;;;6.83;85.09
15817;BME280;8009;50.070;8.232;2023-04-21T03:03:35;99707.69;;;7.07;83.53
15817;BME280;8009;50.070;8.232;2023-04-21T03:06:04;99711.94;;;6.82;86.00
15817;BME280;8009;50.070;8.232;2023-04-21T03:08:36;99714.38;;;7.14;83.56
15817;BME280;8009;50.070;8.232;2023-04-21T03:11:07;99714.72;;;6.95;84.85
15817;BME280;8009;50.070;8.232;2023-04-21T03:13:35;99721.38;;;6.75;84.85
15817;BME280;8009;50.070;8.232;2023-04-21T03:16:06;99722.25;;;6.76;85.36
15817;BME280;8009;50.070;8.232;2023-04-21T03:18:34;99711.59;;;7.28;83.97
15817;BME280;8009;50.070;8.232;2023-04-21T03:36:55;99728.19;;;7.35;81.54
15817;BME280;8009;50.070;8.232;2023-04-21T03:39:24;99730.97;;;7.33;82.03
15817;BME280;8009;50.070;8.232;2023-04-21T03:41:52;99726.44;;;7.21;81.90
15817;BME280;8009;50.070;8.232;2023-04-21T03:44:20;99722.63;;;7.51;80.57
15817;BME280;8009;50.070;8.232;2023-04-21T03:46:51;99720.63;;;7.27;82.77
15817;BME280;8009;50.070;8.232;2023-04-21T03:49:19;99718.25;;;7.50;81.23
15817;BME280;8009;50.070;8.232;2023-04-21T03:51:48;99715.56;;;7.50;81.22
15817;BME280;8009;50.070;8.232;2023-04-21T03:54:18;99727.06;;;6.98;82.88
15817;BME280;8009;50.070;8.232;2023-04-21T03:56:47;99727.84;;;7.00;83.54
15817;BME280;8009;50.070;8.232;2023-04-21T03:59:15;99721.22;;;6.64;84.09
15817;BME280;8009;50.070;8.232;2023-04-21T04:01:45;99721.50;;;7.28;82.42
15817;BME280;8009;50.070;8.232;2023-04-21T04:04:36;99714.00;;;6.65;85.39
15817;BME280;8009;50.070;8.232;2023-04-21T04:07:04;99713.78;;;7.09;82.69
15817;BME280;8009;50.070;8.232;2023-04-21T04:09:36;99716.13;;;6.59;83.92
15817;BME280;8009;50.070;8.232;2023-04-21T04:12:05;99707.69;;;6.66;85.19
15817;BME280;8009;50.070;8.232;2023-04-21T04:14:33;99712.09;;;6.52;87.01
15817;BME280;8009;50.070;8.232;2023-04-21T04:17:01;99707.84;;;6.77;84.87
15817;BME280;8009;50.070;8.232;2023-04-21T04:19:30;99718.91;;;6.58;84.68
15817;BME280;8009;50.070;8.232;2023-04-21T04:21:58;99708.78;;;6.90;83.46
15817;BME280;8009;50.070;8.232;2023-04-21T04:24:27;99718.41;;;6.51;84.04
15817;BME280;8009;50.070;8.232;2023-04-21T04:27:00;99715.25;;;6.73;84.30
15817;BME280;8009;50.070;8.232;2023-04-21T04:29:30;99713.28;;;6.34;85.85
15817;BME280;8009;50.070;8.232;2023-04-21T04:31:59;99706.69;;;6.81;84.79
15817;BME280;8009;50.070;8.232;2023-04-21T04:34:28;99707.00;;;6.76;83.24
15817;BME280;8009;50.070;8.232;2023-04-21T04:36:56;99704.88;;;6.67;83.80
15817;BME280;8009;50.070;8.232;2023-04-21T04:39:25;99701.28;;;6.68;84.68
15817;BME280;8009;50.070;8.232;2023-04-21T04:41:53;99700.88;;;7.01;83.86
15817;BME280;8009;50.070;8.232;2023-04-21T04:44:24;99711.06;;;6.96;83.52
15817;BME280;8009;50.070;8.232;2023-04-21T04:46:53;99708.66;;;6.36;86.33
15817;BME280;8009;50.070;8.232;2023-04-21T04:49:21;99699.50;;;6.81;83.63
15817;BME280;8009;50.070;8.232;2023-04-21T04:51:50;99708.66;;;7.06;83.06
15817;BME280;8009;50.070;8.232;2023-04-21T04:54:18;99699.28;;;7.39;81.41
15817;BME280;8009;50.070;8.232;2023-04-21T04:56:47;99712.94;;;6.67;84.40
15817;BME280;8009;50.070;8.232;2023-04-21T04:59:15;99714.69;;;6.25;86.02
15817;BME280;8009;50.070;8.232;2023-04-21T05:01:46;99712.75;;;6.70;84.33
15817;BME280;8009;50.070;8.232;2023-04-21T05:04:15;99709.50;;;6.79;83.66
15817;BME280;8009;50.070;8.232;2023-04-21T05:06:43;99715.53;;;6.83;84.04
15817;BME280;8009;50.070;8.232;2023-04-21T05:12:47;99714.00;;;7.33;82.11
15817;BME280;8009;50.070;8.232;2023-04-21T05:15:16;99717.13;;;7.13;81.60
15817;BME280;8009;50.070;8.232;2023-04-21T05:21:06;99718.50;;;7.32;81.33
15817;BME280;8009;50.070;8.232;2023-04-21T05:23:35;99718.91;;;6.99;82.44
15817;BME280;8009;50.070;8.232;2023-04-21T05:26:03;99720.13;;;7.08;82.80
15817;BME280;8009;50.070;8.232;2023-04-21T05:28:32;99711.94;;;7.64;80.09
15817;BME280;8009;50.070;8.232;2023-04-21T05:31:00;99716.53;;;7.62;80.39
15817;BME280;8009;50.070;8.232;2023-04-21T05:33:29;99706.38;;;7.40;81.54
15817;BME280;8009;50.070;8.232;2023-04-21T05:35:58;99708.47;;;7.49;81.83
15817;BME280;8009;50.070;8.232;2023-04-21T05:38:29;99700.34;;;7.63;81.25
15817;BME280;8009;50.070;8.232;2023-04-21T05:40:57;99708.03;;;7.55;81.83
15817;BME280;8009;50.070;8.232;2023-04-21T05:43:25;99706.16;;;7.95;80.18
15817;BME280;8009;50.070;8.232;2023-04-21T05:45:54;99705.84;;;8.00;79.22
15817;BME280;8009;50.070;8.232;2023-04-21T05:48:22;99711.31;;;7.73;80.69
15817;BME280;8009;50.070;8.232;2023-04-21T05:50:51;99710.56;;;7.84;80.36
15817;BME280;8009;50.070;8.232;2023-04-21T05:53:19;99718.31;;;7.88;79.80
15817;BME280;8009;50.070;8.232;2023-04-21T05:55:50;99709.72;;;8.09;79.99
15817;BME280;8009;50.070;8.232;2023-04-21T05:58:18;99714.19;;;7.70;82.09
15817;BME280;8009;50.070;8.232;2023-04-21T06:00:47;99708.31;;;8.28;79.01
15817;BME280;8009;50.070;8.232;2023-04-21T06:03:15;99700.69;;;8.48;78.32
15817;BME280;8009;50.070;8.232;2023-04-21T06:05:44;99708.00;;;8.33;79.67
15817;BME280;8009;50.070;8.232;2023-04-21T06:08:12;99709.28;;;8.27;80.50
15817;BME280;8009;50.070;8.232;2023-04-21T06:10:41;99706.72;;;8.26;80.38
15817;BME280;8009;50.070;8.232;2023-04-21T06:13:12;99713.06;;;8.38;79.20
15817;BME280;8009;50.070;8.232;2023-04-21T06:15:40;99708.19;;;8.04;81.64
15817;BME280;8009;50.070;8.232;2023-04-21T06:18:08;99713.50;;;8.44;80.28
15817;BME280;8009;50.070;8.232;2023-04-21T06:20:37;99703.88;;;8.66;80.12
15817;BME280;8009;50.070;8.232;2023-04-21T06:23:05;99703.38;;;8.85;79.65
15817;BME280;8009;50.070;8.232;2023-04-21T06:25:34;99700.19;;;9.03;78.35
15817;BME280;8009;50.070;8.232;2023-04-21T06:28:02;99712.31;;;8.48;81.17
15817;BME280;8009;50.070;8.232;2023-04-21T06:30:33;99715.84;;;8.62;80.80
15817;BME280;8009;50.070;8.232;2023-04-21T06:33:01;99715.84;;;8.62;80.48
15817;BME280;8009;50.070;8.232;2023-04-21T06:35:31;99706.41;;;9.17;78.54
15817;BME280;8009;50.070;8.232;2023-04-21T06:37:59;99716.25;;;8.68;81.12
15817;BME280;8009;50.070;8.232;2023-04-21T06:40:27;99706.63;;;9.14;79.60
15817;BME280;8009;50.070;8.232;2023-04-21T06:42:56;99715.75;;;8.63;81.30
15817;BME280;8009;50.070;8.232;2023-04-21T06:45:24;99716.06;;;9.08;80.63
15817;BME280;8009;50.070;8.232;2023-04-21T06:47:55;99721.47;;;8.95;80.47
15817;BME280;8009;50.070;8.232;2023-04-21T06:50:23;99715.66;;;9.61;78.09
15817;BME280;8009;50.070;8.232;2023-04-21T06:52:52;99716.91;;;9.68;76.69
15817;BME280;8009;50.070;8.232;2023-04-21T06:55:20;99728.66;;;9.56;76.53
15817;BME280;8009;50.070;8.232;2023-04-21T06:57:48;99723.78;;;9.72;76.76
15817;BME280;8009;50.070;8.232;2023-04-21T07:00:17;99730.09;;;9.95;75.49
15817;BME280;8009;50.070;8.232;2023-04-21T07:02:45;99726.81;;;9.56;77.66
15817;BME280;8009;50.070;8.232;2023-04-21T07:05:16;99724.25;;;9.55;76.84
15817;BME280;8009;50.070;8.232;2023-04-21T07:07:44;99719.56;;;9.57;76.49
15817;BME280;8009;50.070;8.232;2023-04-21T07:10:13;99729.31;;;9.70;76.30
15817;BME280;8009;50.070;8.232;2023-04-21T07:12:43;99720.78;;;9.52;76.97
15817;BME280;8009;50.070;8.232;2023-04-21T07:15:12;99731.16;;;9.70;76.86
15817;BME280;8009;50.070;8.232;2023-04-21T07:17:40;99727.84;;;9.66;76.30
15817;BME280;8009;50.070;8.232;2023-04-21T07:20:09;99730.25;;;9.93;75.77
15817;BME280;8009;50.070;8.232;2023-04-21T07:22:40;99725.72;;;10.05;75.44
15817;BME280;8009;50.070;8.232;2023-04-21T07:25:09;99726.13;;;10.12;75.60
15817;BME280;8009;50.070;8.232;2023-04-21T07:27:38;99727.69;;;10.14;75.93
15817;BME280;8009;50.070;8.232;2023-04-21T07:30:07;99721.19;;;10.06;75.32
15817;BME280;8009;50.070;8.232;2023-04-21T07:32:35;99714.22;;;9.09;77.48
15817;BME280;8009;50.070;8.232;2023-04-21T07:35:05;99723.03;;;9.35;78.12
15817;BME280;8009;50.070;8.232;2023-04-21T07:37:33;99717.44;;;9.73;77.05
15817;BME280;8009;50.070;8.232;2023-04-21T07:40:05;99723.44;;;9.41;78.12
15817;BME280;8009;50.070;8.232;2023-04-21T07:42:34;99726.13;;;10.12;75.93
15817;BME280;8009;50.070;8.232;2023-04-21T07:45:02;99726.34;;;10.09;75.22
15817;BME280;8009;50.070;8.232;2023-04-21T07:47:31;99726.78;;;10.27;75.56
15817;BME280;8009;50.070;8.232;2023-04-21T07:49:59;99721.53;;;10.59;74.85
15817;BME280;8009;50.070;8.232;2023-04-21T07:52:28;99720.41;;;10.28;75.20
15817;BME280;8009;50.070;8.232;2023-04-21T07:55:00;99723.84;;;10.63;73.84
15817;BME280;8009;50.070;8.232;2023-04-21T07:57:31;99722.38;;;10.82;73.52
15817;BME280;8009;50.070;8.232;2023-04-21T08:00:03;99727.03;;;10.80;73.69
15817;BME280;8009;50.070;8.232;2023-04-21T08:02:32;99727.31;;;10.65;74.10
15817;BME280;8009;50.070;8.232;2023-04-21T08:05:00;99725.94;;;10.60;74.04
15817;BME280;8009;50.070;8.232;2023-04-21T08:07:28;99731.97;;;10.06;75.44
15817;BME280;8009;50.070;8.232;2023-04-21T08:09:57;99728.00;;;10.34;75.03
15817;BME280;8009;50.070;8.232;2023-04-21T08:12:26;99719.31;;;10.53;73.81
15817;BME280;8009;50.070;8.232;2023-04-21T08:14:57;99704.94;;;10.63;73.40
15817;BME280;8009;50.070;8.232;2023-04-21T08:17:30;99701.03;;;10.56;74.95
15817;BME280;8009;50.070;8.232;2023-04-21T08:19:58;99699.53;;;10.74;75.01
15817;BME280;8009;50.070;8.232;2023-04-21T08:22:26;99704.59;;;10.45;77.30
15817;BME280;8009;50.070;8.232;2023-04-21T08:24:57;99716.84;;;10.72;77.02
15817;BME280;8009;50.070;8.232;2023-04-21T08:27:28;99715.50;;;10.66;76.57
15817;BME280;8009;50.070;8.232;2023-04-21T08:29:59;99709.59;;;11.38;74.65
15817;BME280;8009;50.070;8.232;2023-04-21T08:32:27;99697.41;;;11.44;73.54
15817;BME280;8009;50.070;8.232;2023-04-21T08:34:55;99709.44;;;11.40;73.64
15817;BME280;8009;50.070;8.232;2023-04-21T08:37:24;99715.50;;;11.32;73.67
15817;BME280;8009;50.070;8.232;2023-04-21T08:39:53;99713.47;;;11.02;72.96
15817;BME280;8009;50.070;8.232;2023-04-21T08:42:22;99720.00;;;11.11;74.66
15817;BME280;8009;50.070;8.232;2023-04-21T08:44:50;99704.94;;;11.29;74.30
15817;BME280;8009;50.070;8.232;2023-04-21T08:47:23;99708.97;;;11.99;71.42
15817;BME280;8009;50.070;8.232;2023-04-21T08:49:51;99702.78;;;11.87;71.67
15817;BME280;8009;50.070;8.232;2023-04-21T08:52:20;99709.88;;;12.09;71.51
15817;BME280;8009;50.070;8.232;2023-04-21T08:54:48;99702.34;;;12.34;71.86
15817;BME280;8009;50.070;8.232;2023-04-21T08:57:17;99696.34;;;12.09;70.46
15817;BME280;8009;50.070;8.232;2023-04-21T08:59:45;99693.47;;;11.69;72.13
15817;BME280;8009;50.070;8.232;2023-04-21T09:02:15;99694.56;;;12.50;70.17
15817;BME280;8009;50.070;8.232;2023-04-21T09:04:47;99688.28;;;12.80;70.42
15817;BME280;8009;50.070;8.232;2023-04-21T09:07:30;99685.91;;;13.06;68.01
15817;BME280;8009;50.070;8.232;2023-04-21T09:09:59;99683.13;;;13.27;67.35
15817;BME280;8009;50.070;8.232;2023-04-21T09:12:28;99674.69;;;13.88;65.74
15817;BME280;8009;50.070;8.232;2023-04-21T09:14:57;99675.44;;;13.52;66.27
15817;BME280;8009;50.070;8.232;2023-04-21T09:17:28;99675.72;;;13.49;67.33
15817;BME280;8009;50.070;8.232;2023-04-21T09:20:12;99672.69;;;13.81;66.98
15817;BME280;8009;50.070;8.232;2023-04-21T09:22:41;99668.91;;;14.11;64.53
15817;BME280;8009;50.070;8.232;2023-04-21T09:25:14;99668.34;;;14.17;65.54
15817;BME280;8009;50.070;8.232;2023-04-21T09:27:43;99673.69;;;13.31;66.11
15817;BME280;8009;50.070;8.232;2023-04-21T09:30:18;99673.88;;;13.59;66.15
15817;BME280;8009;50.070;8.232;2023-04-21T09:32:47;99666.53;;;14.45;62.59
15817;BME280;8009;50.070;8.232;2023-04-21T09:35:18;99654.22;;;15.06;61.53
15817;BME280;8009;50.070;8.232;2023-04-21T09:37:46;99665.31;;;14.67;62.43
15817;BME280;8009;50.070;8.232;2023-04-21T09:40:17;99656.56;;;15.01;62.75
15817;BME280;8009;50.070;8.232;2023-04-21T09:42:45;99657.59;;;14.25;62.89
15817;BME280;8009;50.070;8.232;2023-04-21T09:45:14;99655.81;;;14.81;61.92
15817;BME280;8009;50.070;8.232;2023-04-21T09:47:46;99648.72;;;15.51;61.32
15817;BME280;8009;50.070;8.232;2023-04-21T09:50:19;99651.16;;;15.72;58.80
15817;BME280;8009;50.070;8.232;2023-04-21T09:52:50;99644.25;;;16.04;57.82
15817;BME280;8009;50.070;8.232;2023-04-21T09:55:21;99637.81;;;15.87;59.79
15817;BME280;8009;50.070;8.232;2023-04-21T09:57:51;99645.19;;;16.21;59.08
15817;BME280;8009;50.070;8.232;2023-04-21T10:00:26;99648.66;;;15.07;61.46
15817;BME280;8009;50.070;8.232;2023-04-21T10:02:57;99640.03;;;15.48;61.06
15817;BME280;8009;50.070;8.232;2023-04-21T10:05:28;99638.75;;;15.96;57.75
15817;BME280;8009;50.070;8.232;2023-04-21T10:07:56;99635.00;;;16.49;57.06
15817;BME280;8009;50.070;8.232;2023-04-21T10:10:27;99629.88;;;16.20;57.46
15817;BME280;8009;50.070;8.232;2023-04-21T10:12:56;99635.25;;;16.72;55.93
15817;BME280;8009;50.070;8.232;2023-04-21T10:15:29;99629.44;;;15.45;58.47
15817;BME280;8009;50.070;8.232;2023-04-21T10:18:12;99626.28;;;16.45;56.65
15817;BME280;8009;50.070;8.232;2023-04-21T10:20:54;99621.72;;;15.94;56.27
15817;BME280;8009;50.070;8.232;2023-04-21T10:23:35;99623.84;;;16.68;56.04
15817;BME280;8009;50.070;8.232;2023-04-21T10:26:07;99617.19;;;16.37;56.36
15817;BME280;8009;50.070;8.232;2023-04-21T10:28:46;99628.53;;;15.54;56.41
15817;BME280;8009;50.070;8.232;2023-04-21T10:34:14;99627.44;;;15.47;58.30
15817;BME280;8009;50.070;8.232;2023-04-21T10:39:32;99621.53;;;15.69;56.77
15817;BME280;8009;50.070;8.232;2023-04-21T10:42:20;99618.31;;;15.92;55.90
15817;BME280;8009;50.070;8.232;2023-04-21T10:44:51;99625.00;;;15.79;58.26
15817;BME280;8009;50.070;8.232;2023-04-21T10:47:26;99617.03;;;16.04;58.01
15817;BME280;8009;50.070;8.232;2023-04-21T10:50:04;99611.22;;;15.19;59.59
15817;BME280;8009;50.070;8.232;2023-04-21T10:52:37;99619.31;;;14.83;59.46
15817;BME280;8009;50.070;8.232;2023-04-21T10:55:07;99617.34;;;14.58;60.91
15817;BME280;8009;50.070;8.232;2023-04-21T10:57:40;99610.03;;;15.22;59.07
15817;BME280;8009;50.070;8.232;2023-04-21T11:00:10;99610.75;;;15.24;59.49
15817;BME280;8009;50.070;8.232;2023-04-21T11:02:39;99616.03;;;14.80;60.58
15817;BME280;8009;50.070;8.232;2023-04-21T11:05:10;99617.59;;;14.27;60.89
15817;BME280;8009;50.070;8.232;2023-04-21T11:07:39;99606.03;;;14.53;60.67
15817;BME280;8009;50.070;8.232;2023-04-21T11:10:08;99596.06;;;15.17;59.16
15817;BME280;8009;50.070;8.232;2023-04-21T11:12:38;99607.19;;;14.78;59.16
15817;BME280;8009;50.070;8.232;2023-04-21T11:15:09;99589.91;;;15.32;57.33
15817;BME280;8009;50.070;8.232;2023-04-21T11:17:39;99591.84;;;15.40;56.99
15817;BME280;8009;50.070;8.232;2023-04-21T11:20:10;99593.75;;;14.76;58.61
15817;BME280;8009;50.070;8.232;2023-04-21T11:22:39;99589.75;;;14.53;59.02
15817;BME280;8009;50.070;8.232;2023-04-21T11:25:16;99580.44;;;14.55;60.19
15817;BME280;8009;50.070;8.232;2023-04-21T11:27:57;99584.19;;;14.54;59.70
15817;BME280;8009;50.070;8.232;2023-04-21T11:30:31;99583.94;;;14.93;58.92
15817;BME280;8009;50.070;8.232;2023-04-21T11:33:00;99575.00;;;15.01;58.78
15817;BME280;8009;50.070;8.232;2023-04-21T11:35:31;99576.84;;;15.18;57.69
15817;BME280;8009;50.070;8.232;2023-04-21T11:38:03;99577.25;;;15.05;58.28
15817;BME280;8009;50.070;8.232;2023-04-21T11:40:44;99584.19;;;14.72;59.95
15817;BME280;8009;50.070;8.232;2023-04-21T11:43:12;99581.03;;;14.77;59.90
15817;BME280;8009;50.070;8.232;2023-04-21T11:45:41;99573.94;;;14.66;60.28
15817;BME280;8009;50.070;8.232;2023-04-21T11:48:13;99570.56;;;14.82;59.58
15817;BME280;8009;50.070;8.232;2023-04-21T11:50:48;99563.78;;;15.22;57.63
15817;BME280;8009;50.070;8.232;2023-04-21T11:53:18;99557.59;;;15.99;56.25
15817;BME280;8009;50.070;8.232;2023-04-21T11:55:46;99560.81;;;15.69;55.83
15817;BME280;8009;50.070;8.232;2023-04-21T11:58:15;99565.47;;;15.58;56.68
15817;BME280;8009;50.070;8.232;2023-04-21T12:00:43;99555.50;;;15.93;55.96
15817;BME280;8009;50.070;8.232;2023-04-21T12:03:12;99549.59;;;16.40;55.41
15817;BME280;8009;50.070;8.232;2023-04-21T12:05:41;99553.31;;;15.97;57.55
15817;BME280;8009;50.070;8.232;2023-04-21T12:08:14;99556.41;;;15.50;57.76
15817;BME280;8009;50.070;8.232;2023-04-21T12:10:44;99549.63;;;15.54;56.64
15817;BME280;8009;50.070;8.232;2023-04-21T12:13:20;99541.28;;;15.55;57.01
15817;BME280;8009;50.070;8.232;2023-04-21T12:15:49;99519.81;;;15.96;56.21
15817;BME280;8009;50.070;8.232;2023-04-21T12:18:17;99541.28;;;15.55;56.34
15817;BME280;8009;50.070;8.232;2023-04-21T12:20:49;99534.50;;;15.77;55.65
15817;BME280;8009;50.070;8.232;2023-04-21T12:23:23;99531.78;;;15.77;55.80
15817;BME280;8009;50.070;8.232;2023-04-21T12:25:51;99529.56;;;15.55;56.89
15817;BME280;8009;50.070;8.232;2023-04-21T12:28:20;99525.25;;;15.96;56.02
15817;BME280;8009;50.070;8.232;2023-04-21T12:30:48;99542.66;;;16.03;56.29
15817;BME280;8009;50.070;8.232;2023-04-21T12:33:16;99536.75;;;15.64;56.96
15817;BME280;8009;50.070;8.232;2023-04-21T12:35:45;99540.16;;;15.40;57.66
15817;BME280;8009;50.070;8.232;2023-04-21T12:38:13;99528.16;;;15.69;57.10
15817;BME280;8009;50.070;8.232;2023-04-21T12:40:44;99538.06;;;15.60;57.91
15817;BME280;8009;50.070;8.232;2023-04-21T12:43:13;99530.91;;;15.33;58.47
15817;BME280;8009;50.070;8.232;2023-04-21T12:45:41;99528.53;;;15.74;58.54
15817;BME280;8009;50.070;8.232;2023-04-21T12:48:09;99524.91;;;16.33;56.09
15817;BME280;8009;50.070;8.232;2023-04-21T12:50:38;99524.75;;;16.01;57.09
15817;BME280;8009;50.070;8.232;2023-04-21T12:53:06;99523.06;;;16.00;56.21
15817;BME280;8009;50.070;8.232;2023-04-21T12:55:34;99522.75;;;16.03;56.97
15817;BME280;8009;50.070;8.232;2023-04-21T12:58:06;99520.72;;;16.13;56.84
15817;BME280;8009;50.070;8.232;2023-04-21T13:00:37;99513.59;;;16.20;56.44
15817;BME280;8009;50.070;8.232;2023-04-21T13:03:05;99511.59;;;16.22;56.60
15817;BME280;8009;50.070;8.232;2023-04-21T13:05:34;99507.69;;;16.92;54.60
15817;BME280;8009;50.070;8.232;2023-04-21T13:08:03;99514.31;;;17.63;53.65
15817;BME280;8009;50.070;8.232;2023-04-21T13:10:32;99514.72;;;16.52;55.73
15817;BME280;8009;50.070;8.232;2023-04-21T13:13:05;99508.88;;;16.30;56.53
15817;BME280;8009;50.070;8.232;2023-04-21T13:15:34;99502.09;;;16.43;56.77
15817;BME280;8009;50.070;8.232;2023-04-21T13:18:02;99500.09;;;16.53;56.48
15817;BME280;8009;50.070;8.232;2023-04-21T13:20:31;99507.66;;;16.25;55.89
15817;BME280;8009;50.070;8.232;2023-04-21T13:22:59;99501.94;;;16.44;56.59
15817;BME280;8009;50.070;8.232;2023-04-21T13:25:27;99503.41;;;16.81;55.29
15817;BME280;8009;50.070;8.232;2023-04-21T13:27:56;99499.34;;;16.93;55.02
15817;BME280;8009;50.070;8.232;2023-04-21T13:30:27;99494.06;;;16.92;54.15
15817;BME280;8009;50.070;8.232;2023-04-21T13:32:55;99491.19;;;17.26;54.43
15817;BME280;8009;50.070;8.232;2023-04-21T13:35:26;99480.09;;;17.11;54.27
15817;BME280;8009;50.070;8.232;2023-04-21T13:37:55;99486.91;;;17.15;53.46
15817;BME280;8009;50.070;8.232;2023-04-21T13:40:24;99478.22;;;17.20;52.73
15817;BME280;8009;50.070;8.232;2023-04-21T13:42:52;99477.88;;;17.23;53.12
15817;BME280;8009;50.070;8.232;2023-04-21T13:45:27;99477.50;;;17.50;52.35
15817;BME280;8009;50.070;8.232;2023-04-21T13:47:58;99463.97;;;17.65;51.90
15817;BME280;8009;50.070;8.232;2023-04-21T13:50:26;99450.84;;;17.69;51.57
15817;BME280;8009;50.070;8.232;2023-04-21T13:52:55;99457.34;;;17.60;52.69
15817;BME280;8009;50.070;8.232;2023-04-21T13:55:24;99447.81;;;17.56;52.56
15817;BME280;8009;50.070;8.232;2023-04-21T13:57:52;99446.91;;;16.41;55.12
15817;BME280;8009;50.070;8.232;2023-04-21T14:00:21;99433.75;;;16.12;56.35
15817;BME280;8009;50.070;8.232;2023-04-21T14:02:52;99432.06;;;16.11;56.63
15817;BME280;8009;50.070;8.232;2023-04-21T14:05:20;99429.38;;;16.43;55.78
15817;BME280;8009;50.070;8.232;2023-04-21T14:07:49;99434.75;;;17.10;52.64
15817;BME280;8009;50.070;8.232;2023-04-21T14:10:17;99422.03;;;16.19;54.83
15817;BME280;8009;50.070;8.232;2023-04-21T14:12:46;99426.66;;;16.43;54.97
15817;BME280;8009;50.070;8.232;2023-04-21T14:15:14;99417.13;;;16.39;54.96
15817;BME280;8009;50.070;8.232;2023-04-21T14:17:42;99412.38;;;16.57;54.84
15817;BME280;8009;50.070;8.232;2023-04-21T14:20:13;99423.28;;;16.41;55.00
15817;BME280;8009;50.070;8.232;2023-04-21T14:22:46;99409.13;;;16.38;55.50
15817;BME280;8009;50.070;8.232;2023-04-21T14:25:15;99421.00;;;16.28;55.42
15817;BME280;8009;50.070;8.232;2023-04-21T14:27:43;99406.81;;;16.75;53.49
15817;BME280;8009;50.070;8.232;2023-04-21T14:30:12;99405.94;;;16.75;53.98
15817;BME280;8009;50.070;8.232;2023-04-21T14:32:41;99396.56;;;16.94;53.79
15817;BME280;8009;50.070;8.232;2023-04-21T14:35:14;99393.00;;;16.85;54.16
15817;BME280;8009;50.070;8.232;2023-04-21T14:37:43;99388.22;;;17.03;52.95
15817;BME280;8009;50.070;8.232;2023-04-21T14:40:11;99391.31;;;16.76;53.98
15817;BME280;8009;50.070;8.232;2023-04-21T14:42:40;99384.09;;;16.58;54.74
15817;BME280;8009;50.070;8.232;2023-04-21T14:45:09;99374.06;;;16.59;54.81